West Suffield, Connecticut
Current Conditions -  °F | °C
As of 3:51 PM on Friday 19 Dec 2014 (Local Time) from KBDL Reporting Station
Overcast Overcast  
Wind Chill: 23°   Ceiling: 3300
Heat Index: 33°   Visibility: 10mi
Dew Point: 20°   Wind: 14mph
Humidity: 59%   Direction: 310°NW
Pressure: 30.03"   Gusts: NA
Location:  41.99°N, 72.69°W
Report Text: KBDL 192051Z 31012KT 10SM OVC033 01/M07 A3003 RMK AO2 SLP172 T00061067 53018
Loading
Personal Weather Stations






























Interactive Weather Map New forecast layout! Learn more

10-Day Weather Forecast

Advertisements
Track Severe Weather on mobile